Time;durP1;ratioP1;P1;durP2;ratioP2;P2;SDS_P1;SDS_P2;PMS_P1;PMS_P2;Temp;Humidity;BMP_temperature;BMP_pressure;BME280_temperature;BME280_humidity;BME280_pressure;Samples;Min_cycle;Max_cycle;Signal;HPM_P1;HPM_P2
2021/07/06 00:02:25;;;;;;;;;;;;;;;14.52;89.36;100353.44;5022869;28;20057;-89
2021/07/06 00:06:05;;;;;;;0.13;0.13;;;;;;;14.55;89.11;100350.84;5024031;28;20606;-90
2021/07/06 00:08:38;;;;;;;0.13;0.13;;;;;;;14.61;88.91;100344.13;5039058;28;20059;-89
2021/07/06 00:11:12;;;;;;;0.20;0.20;;;;;;;14.61;88.62;100344.13;5031664;28;20052;-88
2021/07/06 00:14:28;;;;;;;0.10;0.10;;;;;;;14.62;89.00;100345.78;5032325;28;20053;-91
2021/07/06 00:16:57;;;;;;;0.20;0.20;;;;;;;14.64;88.78;100345.47;5031655;28;20053;-89
2021/07/06 00:19:40;;;;;;;0.10;0.10;;;;;;;14.63;89.13;100339.16;5045931;28;20056;-90
2021/07/06 00:22:15;;;;;;;0.20;0.20;;;;;;;14.60;88.89;100338.97;5031432;28;20068;-91
2021/07/06 00:24:48;;;;;;;0.20;0.20;;;;;;;14.63;88.79;100338.38;5039039;28;20057;-89
2021/07/06 00:27:17;;;;;;;0.10;0.10;;;;;;;14.61;89.15;100338.66;5031734;28;20068;-90
2021/07/06 00:29:45;;;;;;;0.20;0.20;;;;;;;14.58;89.34;100333.81;5032335;28;20061;-90
2021/07/06 00:32:20;;;;;;;0.20;0.20;;;;;;;14.55;89.27;100314.47;5040966;28;20079;-90
2021/07/06 00:34:48;;;;;;;0.17;0.17;;;;;;;14.63;88.44;100330.94;5019829;28;20053;-90
2021/07/06 00:37:17;;;;;;;0.20;0.20;;;;;;;14.62;88.96;100323.03;5047922;28;20061;-91
2021/07/06 00:39:54;;;;;;;0.20;0.20;;;;;;;14.63;88.81;100319.19;5031152;28;20052;-90
2021/07/06 00:42:27;;;;;;;0.20;0.20;;;;;;;14.61;88.69;100316.75;5012646;28;20056;-90
2021/07/06 00:45:50;;;;;;;0.20;0.20;;;;;;;14.61;88.86;100322.22;5041426;28;20052;-90
2021/07/06 00:48:21;;;;;;;0.10;0.10;;;;;;;14.46;89.04;100298.81;5017592;28;20068;-90
2021/07/06 00:51:39;;;;;;;0.30;0.30;;;;;;;14.61;89.22;100322.22;5036473;28;20055;-90
2021/07/06 00:58:47;;;;;;;0.20;0.20;;;;;;;14.36;90.14;100304.56;5036486;28;20064;-90
2021/07/06 01:01:49;;;;;;;0.20;0.20;;;;;;;14.63;89.95;100320.00;5029253;28;20064;-90
2021/07/06 01:07:48;;;;;;;0.17;0.17;;;;;;;14.73;90.25;100315.38;5042094;28;20057;-90
2021/07/06 01:10:22;;;;;;;0.10;0.10;;;;;;;14.66;89.61;100302.13;5059949;28;20045;-91
2021/07/06 01:13:15;;;;;;;0.25;0.25;;;;;;;14.77;89.68;100314.41;5055786;28;20052;-91
2021/07/06 01:15:49;;;;;;;0.20;0.20;;;;;;;14.75;89.84;100313.94;5048759;28;20045;-90
2021/07/06 01:18:24;;;;;;;0.20;0.20;;;;;;;14.77;89.97;100299.91;5050964;28;20096;-90
2021/07/06 01:21:03;;;;;;;0.20;0.20;;;;;;;14.73;89.70;100290.72;5034049;28;20053;-91
2021/07/06 01:23:45;;;;;;;0.17;0.10;;;;;;;14.83;89.31;100301.41;5047341;28;20058;-89
2021/07/06 01:26:24;;;;;;;0.10;0.10;;;;;;;14.77;89.43;100286.22;5032967;28;20520;-90
2021/07/06 01:29:00;;;;;;;0.20;0.20;;;;;;;14.67;89.47;100264.63;5016553;28;20053;-90
2021/07/06 01:31:34;;;;;;;0.20;0.20;;;;;;;14.85;89.75;100290.13;5048573;28;20059;-90
2021/07/06 01:34:43;;;;;;;0.20;0.20;;;;;;;14.85;89.84;100282.69;5042420;28;20418;-90
2021/07/06 01:37:16;;;;;;;0.20;0.20;;;;;;;14.81;90.12;100275.44;5041065;28;20175;-90
2021/07/06 01:39:48;;;;;;;0.20;0.17;;;;;;;14.79;89.85;100278.50;5031715;28;20082;-90
2021/07/06 01:42:22;;;;;;;0.17;0.17;;;;;;;14.79;89.52;100279.31;5034908;28;20061;-91
2021/07/06 01:45:12;;;;;;;0.20;0.20;;;;;;;14.84;90.05;100272.06;5032065;28;20497;-90
2021/07/06 01:47:44;;;;;;;0.10;0.10;;;;;;;14.85;90.16;100265.47;5037068;28;20057;-90
2021/07/06 01:50:21;;;;;;;0.20;0.20;;;;;;;14.75;89.80;100242.72;5027482;28;20056;-89
2021/07/06 01:53:02;;;;;;;0.20;0.20;;;;;;;14.88;89.92;100270.28;5033501;28;20505;-90
2021/07/06 01:55:55;;;;;;;0.10;0.10;;;;;;;14.89;90.05;100256.28;5020650;28;20076;-90
2021/07/06 01:58:31;;;;;;;0.20;0.20;;;;;;;14.90;89.82;100263.38;5040695;28;20060;-90
2021/07/06 02:01:04;;;;;;;0.20;0.20;;;;;;;14.86;89.69;100245.97;5033546;28;20062;-91
2021/07/06 02:03:33;;;;;;;0.20;0.20;;;;;;;14.88;90.10;100243.69;5029159;28;20063;-90
2021/07/06 02:06:01;;;;;;;0.20;0.20;;;;;;;14.91;89.69;100239.53;5038209;28;20087;-90
2021/07/06 02:09:22;;;;;;;0.15;0.15;;;;;;;14.91;89.90;100234.84;5051842;28;20516;-90
2021/07/06 02:12:21;;;;;;;0.15;0.15;;;;;;;14.90;90.32;100246.13;5028037;28;20529;-91
2021/07/06 02:14:55;;;;;;;0.10;0.10;;;;;;;14.84;90.08;100234.50;5031328;28;20053;-91
2021/07/06 02:17:52;;;;;;;0.20;0.20;;;;;;;14.90;90.15;100237.91;5026380;28;20049;-91
2021/07/06 02:20:25;;;;;;;0.20;0.20;;;;;;;14.71;89.77;100202.59;5065489;28;20048;-90
2021/07/06 02:22:56;;;;;;;0.20;0.20;;;;;;;14.94;89.93;100228.75;5030562;28;20057;-92
2021/07/06 02:25:42;;;;;;;0.15;0.15;;;;;;;14.90;90.33;100221.47;5054190;28;20047;-90
2021/07/06 02:28:17;;;;;;;0.20;0.20;;;;;;;14.93;90.33;100232.59;5072106;28;20067;-90
2021/07/06 02:30:51;;;;;;;0.20;0.20;;;;;;;14.94;90.41;100222.44;5035319;28;20057;-90
2021/07/06 02:33:24;;;;;;;0.20;0.20;;;;;;;14.92;90.87;100222.75;5049831;28;20512;-91
2021/07/06 02:35:57;;;;;;;0.20;0.20;;;;;;;14.86;90.72;100215.84;5048063;28;20056;-90
2021/07/06 02:38:32;;;;;;;0.17;0.17;;;;;;;14.90;90.70;100225.03;5041221;28;20060;-90
2021/07/06 02:41:27;;;;;;;0.10;0.10;;;;;;;14.92;90.58;100211.00;5043236;28;20053;-89
2021/07/06 02:44:01;;;;;;;0.10;0.10;;;;;;;14.92;90.46;100211.78;5032434;28;20513;-89
2021/07/06 02:46:30;;;;;;;0.20;0.20;;;;;;;14.83;90.52;100191.00;5042956;28;20497;-91
2021/07/06 02:49:03;;;;;;;0.20;0.20;;;;;;;14.99;90.51;100218.75;5058706;28;20059;-90
2021/07/06 02:51:31;;;;;;;0.17;0.17;;;;;;;15.00;91.08;100223.06;5039643;28;20065;-90
2021/07/06 02:54:34;;;;;;;0.20;0.20;;;;;;;15.02;90.60;100207.94;5015031;28;20068;-91
2021/07/06 03:01:16;;;;;;;0.10;0.10;;;;;;;15.04;90.69;100204.88;5029136;28;20053;-89
2021/07/06 03:04:01;;;;;;;0.20;0.20;;;;;;;15.02;90.98;100207.13;5033303;28;20053;-91
2021/07/06 03:06:31;;;;;;;0.20;0.20;;;;;;;15.00;90.06;100196.50;5038211;28;20052;-91
2021/07/06 03:09:08;;;;;;;0.20;0.20;;;;;;;14.98;90.77;100196.00;5029176;28;20064;-90
2021/07/06 03:15:20;;;;;;;0.10;0.10;;;;;;;15.00;90.87;100179.25;5040054;28;20044;-90
2021/07/06 03:17:56;;;;;;;0.10;0.10;;;;;;;15.07;91.00;100179.59;5042744;28;20051;-90
2021/07/06 03:20:27;;;;;;;0.10;0.10;;;;;;;15.10;90.65;100184.41;5027599;28;20056;-88
2021/07/06 03:23:42;;;;;;;0.20;0.20;;;;;;;15.11;91.21;100181.34;5028857;28;20057;-90
2021/07/06 03:26:18;;;;;;;0.13;0.13;;;;;;;15.11;91.11;100181.34;5031524;28;20076;-90
2021/07/06 03:29:07;;;;;;;0.20;0.20;;;;;;;15.15;91.00;100184.25;5021553;28;20045;-89
2021/07/06 03:32:05;;;;;;;0.20;0.20;;;;;;;15.21;91.25;100182.16;5027919;28;20310;-91
2021/07/06 03:34:35;;;;;;;0.20;0.20;;;;;;;15.18;90.55;100178.13;5031159;28;20053;-91
2021/07/06 03:37:11;;;;;;;0.20;0.20;;;;;;;15.17;91.47;100176.50;5013623;28;20057;-90
2021/07/06 03:40:09;;;;;;;0.20;0.20;;;;;;;15.25;91.08;100174.91;5029546;28;20505;-90
2021/07/06 03:43:33;;;;;;;0.43;0.20;;;;;;;15.29;90.96;100173.91;5028628;28;20080;-91
2021/07/06 03:46:32;;;;;;;0.20;0.20;;;;;;;15.33;90.26;100174.09;5022789;28;20057;-91
2021/07/06 03:49:05;;;;;;;0.20;0.20;;;;;;;15.36;90.62;100169.91;5035645;28;20044;-89
2021/07/06 03:52:30;;;;;;;0.10;0.10;;;;;;;15.39;90.71;100171.97;5033721;28;20057;-90
2021/07/06 03:55:11;;;;;;;0.35;0.20;;;;;;;15.38;90.36;100164.88;5024219;28;20064;-91
2021/07/06 03:57:39;;;;;;;0.10;0.10;;;;;;;15.35;91.02;100149.09;5027797;28;20425;-90
2021/07/06 04:00:18;;;;;;;0.20;0.20;;;;;;;15.35;90.33;100141.66;5023223;28;20053;-89
2021/07/06 04:03:10;;;;;;;0.20;0.20;;;;;;;15.48;90.33;100153.59;5025656;28;20072;-89
2021/07/06 04:05:49;;;;;;;0.20;0.20;;;;;;;15.40;90.42;100140.69;5062686;28;20048;-89
2021/07/06 04:08:22;;;;;;;0.20;0.20;;;;;;;15.27;90.40;100106.84;5021705;28;20053;-90
2021/07/06 04:10:57;;;;;;;0.10;0.10;;;;;;;15.42;90.58;100132.94;5029823;28;20048;-90
2021/07/06 04:13:50;;;;;;;0.20;0.20;;;;;;;15.48;90.86;100140.66;5031736;28;20056;-90
2021/07/06 04:16:23;;;;;;;0.20;0.20;;;;;;;15.35;90.33;100113.44;5038418;28;20060;-89
2021/07/06 04:18:51;;;;;;;0.17;0.17;;;;;;;15.47;90.12;100135.50;5032415;28;20060;-88
2021/07/06 04:22:07;;;;;;;0.10;0.10;;;;;;;15.50;89.73;100140.34;5036180;28;20057;-90
2021/07/06 04:24:35;;;;;;;0.10;0.10;;;;;;;15.58;88.80;100141.47;5012084;28;20065;-89
2021/07/06 04:27:10;;;;;;;0.17;0.17;;;;;;;15.61;89.02;100147.09;5029993;28;20053;-90
2021/07/06 04:29:38;;;;;;;0.20;0.20;;;;;;;15.41;89.93;100126.66;5011350;28;20049;-90
2021/07/06 04:32:13;;;;;;;0.20;0.20;;;;;;;15.60;88.53;100148.22;5037871;28;20049;-90
2021/07/06 04:34:50;;;;;;;0.10;0.10;;;;;;;15.65;89.10;100150.78;5022797;28;20048;-91
2021/07/06 04:37:24;;;;;;;0.20;0.20;;;;;;;15.69;89.47;100156.44;5038407;28;20060;-91
2021/07/06 04:39:59;;;;;;;0.10;0.10;;;;;;;15.72;90.16;100150.28;5042291;28;20044;-89
2021/07/06 04:42:33;;;;;;;0.20;0.20;;;;;;;15.69;90.04;100142.72;5031357;28;20053;-89
2021/07/06 04:45:07;;;;;;;0.13;0.13;;;;;;;15.73;90.14;100140.94;5049513;28;20061;-89
2021/07/06 04:47:36;;;;;;;0.20;0.20;;;;;;;15.80;89.49;100146.72;5030763;28;20072;-90
2021/07/06 04:50:52;;;;;;;0.20;0.20;;;;;;;15.87;89.01;100140.75;5028088;28;20061;-90
2021/07/06 04:53:29;;;;;;;0.10;0.10;;;;;;;15.75;89.17;100116.69;5018448;28;20060;-90
2021/07/06 04:55:58;;;;;;;0.10;0.10;;;;;;;16.02;89.50;100146.81;5030106;28;20057;-91
2021/07/06 04:58:55;;;;;;;0.20;0.20;;;;;;;16.05;88.72;100144.22;5020697;28;20110;-89
2021/07/06 05:01:30;;;;;;;0.20;0.20;;;;;;;15.95;88.69;100119.88;5031525;28;20057;-90
2021/07/06 05:04:02;;;;;;;0.10;0.10;;;;;;;16.19;89.21;100143.19;5049461;28;20482;-89
2021/07/06 05:07:05;;;;;;;0.20;0.20;;;;;;;16.23;89.50;100131.22;5047007;28;20063;-90
2021/07/06 05:10:06;;;;;;;0.30;0.20;;;;;;;16.36;88.36;100125.81;5035663;28;20049;-90
2021/07/06 05:12:46;;;;;;;0.22;0.22;;;;;;;16.29;89.07;100098.88;5029554;28;20046;-89
2021/07/06 05:15:47;;;;;;;0.20;0.20;;;;;;;17.44;85.82;100118.78;5041488;28;20058;-90
2021/07/06 05:18:25;;;;;;;0.20;0.20;;;;;;;18.28;81.24;100095.59;5019601;28;20532;-90
2021/07/06 05:21:26;;;;;;;0.20;0.20;;;;;;;18.59;78.71;100117.00;5022842;28;20497;-90
2021/07/06 05:24:05;;;;;;;0.20;0.20;;;;;;;18.00;81.47;100091.59;5027161;28;20509;-89
2021/07/06 05:26:37;;;;;;;0.20;0.20;;;;;;;18.46;79.89;100099.72;5014376;28;20060;-89
2021/07/06 05:29:22;;;;;;;0.20;0.20;;;;;;;19.95;76.32;100104.53;5026547;28;20054;-90
2021/07/06 05:31:55;;;;;;;0.20;0.20;;;;;;;21.38;69.02;100103.22;5019404;28;20142;-90
2021/07/06 05:34:25;;;;;;;0.20;0.20;;;;;;;22.42;67.29;100081.97;5030575;28;20048;-91
2021/07/06 05:37:02;;;;;;;0.20;0.20;;;;;;;22.98;64.44;100063.63;5031025;28;20057;-90
2021/07/06 05:39:36;;;;;;;0.20;0.20;;;;;;;23.13;62.59;100074.91;5014477;28;20053;-89
2021/07/06 05:42:08;;;;;;;0.20;0.20;;;;;;;23.49;60.54;100094.69;5051491;28;20045;-89
2021/07/06 05:44:55;;;;;;;0.20;0.20;;;;;;;23.95;61.53;100111.00;5045922;28;20045;-90
2021/07/06 05:47:25;;;;;;;0.10;0.10;;;;;;;23.54;63.17;100122.13;5039056;28;20051;-91
2021/07/06 05:49:57;;;;;;;0.15;0.15;;;;;;;22.12;67.81;100135.34;5050146;28;20040;-89
2021/07/06 05:52:35;;;;;;;0.17;0.17;;;;;;;21.29;68.86;100147.72;5037367;28;20053;-90
2021/07/06 05:55:49;;;;;;;0.10;0.10;;;;;;;20.79;71.54;100157.78;5067435;28;20041;-92
2021/07/06 05:58:24;;;;;;;0.10;0.10;;;;;;;19.84;75.69;100159.50;5020232;28;20059;-89
2021/07/06 06:01:01;;;;;;;0.45;0.20;;;;;;;19.46;76.98;100153.38;5034376;28;20065;-88
2021/07/06 06:03:36;;;;;;;0.10;0.10;;;;;;;19.23;76.95;100153.13;5029821;28;20050;-89
2021/07/06 06:06:18;;;;;;;0.10;0.10;;;;;;;18.70;79.78;100148.44;5043458;28;20814;-87
2021/07/06 06:08:56;;;;;;;0.45;0.20;;;;;;;18.51;79.17;100137.22;5030331;28;20060;-89
2021/07/06 06:11:29;;;;;;;0.15;0.15;;;;;;;18.37;79.16;100137.59;5032547;28;20060;-87
2021/07/06 06:14:01;;;;;;;0.10;0.10;;;;;;;18.17;82.36;100122.78;5039509;28;20055;-88
2021/07/06 06:16:36;;;;;;;0.10;0.10;;;;;;;18.13;82.51;100135.63;5049875;28;20045;-90
2021/07/06 06:19:12;;;;;;;0.17;0.17;;;;;;;18.09;82.40;100124.53;5029370;28;20413;-94
2021/07/06 06:21:43;;;;;;;0.10;0.10;;;;;;;18.25;82.52;100115.56;5033038;28;20061;-89
2021/07/06 06:24:16;;;;;;;0.10;0.10;;;;;;;18.29;82.45;100122.78;5048366;28;20084;-88
2021/07/06 06:26:50;;;;;;;0.10;0.10;;;;;;;18.32;82.72;100083.53;5027733;28;20053;-90
2021/07/06 06:29:26;;;;;;;0.10;0.10;;;;;;;18.43;82.42;100105.09;5049514;28;20064;-90
2021/07/06 06:32:18;;;;;;;0.10;0.10;;;;;;;18.52;82.81;100100.28;5050543;28;20049;-88
2021/07/06 06:34:53;;;;;;;0.20;0.17;;;;;;;18.72;82.13;100103.19;5046372;28;20052;-88
2021/07/06 06:37:29;;;;;;;0.10;0.10;;;;;;;18.51;80.97;100071.09;5030931;28;20819;-89
2021/07/06 06:40:28;;;;;;;0.10;0.10;;;;;;;18.59;82.23;100100.47;5040451;28;20060;-89
2021/07/06 06:43:04;;;;;;;0.20;0.20;;;;;;;18.42;82.05;100096.03;5049227;28;20057;-89
2021/07/06 06:46:04;;;;;;;0.17;0.17;;;;;;;18.41;83.51;100110.97;5026597;28;20485;-90
2021/07/06 06:48:37;;;;;;;0.10;0.10;;;;;;;18.80;84.80;100096.75;5049361;28;20059;-89
2021/07/06 06:51:11;;;;;;;0.10;0.10;;;;;;;19.06;83.84;100103.78;5049555;28;20517;-89
2021/07/06 06:53:47;;;;;;;0.10;0.10;;;;;;;19.31;81.87;100099.75;5044887;28;20052;-88
2021/07/06 06:56:44;;;;;;;0.20;0.20;;;;;;;19.47;80.88;100093.44;5026187;28;20060;-87
2021/07/06 06:59:14;;;;;;;0.20;0.20;;;;;;;19.77;79.06;100093.03;5029991;28;20063;-88
2021/07/06 07:01:47;;;;;;;0.47;0.20;;;;;;;19.87;78.95;100101.59;5029669;28;20056;-88
2021/07/06 07:04:26;;;;;;;0.10;0.10;;;;;;;19.98;78.03;100088.06;5033115;28;20060;-87
2021/07/06 07:07:30;;;;;;;0.10;0.10;;;;;;;20.16;77.50;100096.75;5035836;28;20059;-88
2021/07/06 07:09:59;;;;;;;0.10;0.10;;;;;;;20.16;77.94;100093.19;5049265;28;20528;-87
2021/07/06 07:12:29;;;;;;;0.20;0.20;;;;;;;20.34;76.79;100090.81;5050627;28;20607;-88
2021/07/06 07:15:02;;;;;;;0.10;0.10;;;;;;;20.53;80.28;100079.78;5028338;28;20413;-88
2021/07/06 07:17:30;;;;;;;0.20;0.20;;;;;;;20.62;77.72;100076.00;5028139;28;20613;-88
2021/07/06 07:20:05;;;;;;;0.25;0.20;;;;;;;20.95;77.90;100074.72;5046653;28;20060;-88
2021/07/06 07:22:44;;;;;;;0.10;0.10;;;;;;;21.08;73.38;100086.47;5026975;28;20060;-88
2021/07/06 07:25:15;;;;;;;0.10;0.10;;;;;;;21.21;76.53;100074.03;5048060;28;20056;-88
2021/07/06 07:27:50;;;;;;;0.28;0.20;;;;;;;21.08;75.21;100058.78;5023152;28;20432;-89
2021/07/06 07:30:23;;;;;;;0.10;0.10;;;;;;;21.06;73.20;100061.94;5028727;28;20052;-87
2021/07/06 07:32:53;;;;;;;0.10;0.10;;;;;;;21.12;74.29;100067.97;5049597;28;20052;-88
2021/07/06 07:35:30;;;;;;;0.20;0.20;;;;;;;20.83;73.67;100067.41;5028132;28;20060;-88
2021/07/06 07:38:10;;;;;;;0.10;0.10;;;;;;;20.74;75.35;100081.44;5033405;28;20420;-88
2021/07/06 07:40:38;;;;;;;0.22;0.20;;;;;;;20.70;76.59;100089.66;5030874;28;20049;-88
2021/07/06 07:43:15;;;;;;;0.10;0.10;;;;;;;20.75;74.72;100098.84;5028036;28;20821;-88
2021/07/06 07:45:49;;;;;;;0.10;0.10;;;;;;;20.79;76.76;100092.22;5044954;28;20712;-89
2021/07/06 07:48:23;;;;;;;0.10;0.10;;;;;;;20.66;74.61;100085.19;5024466;28;20063;-88
2021/07/06 07:51:00;;;;;;;0.10;0.10;;;;;;;20.78;78.72;100098.09;5028137;28;20052;-88
2021/07/06 07:53:31;;;;;;;0.10;0.10;;;;;;;20.87;74.46;100101.47;5054292;28;20074;-88
2021/07/06 07:56:00;;;;;;;0.10;0.10;;;;;;;20.86;75.48;100095.13;5046228;28;20059;-89
2021/07/06 07:58:59;;;;;;;0.10;0.10;;;;;;;20.98;74.14;100085.88;5049274;28;20063;-88
2021/07/06 08:01:34;;;;;;;0.10;0.10;;;;;;;20.68;72.75;100028.41;5047537;28;20048;-89
2021/07/06 08:04:09;;;;;;;0.10;0.10;;;;;;;21.05;72.05;100086.00;5048887;28;21019;-88
2021/07/06 08:06:42;;;;;;;0.13;0.13;;;;;;;21.24;74.51;100076.88;5050456;28;20056;-89
2021/07/06 08:09:20;;;;;;;0.20;0.20;;;;;;;21.74;74.88;100071.44;5047171;28;20912;-88
2021/07/06 08:11:50;;;;;;;1.02;0.30;;;;;;;22.01;71.37;100056.81;5024439;28;20742;-88
2021/07/06 08:14:19;;;;;;;0.52;0.22;;;;;;;22.29;70.31;100056.44;5029839;28;20053;-89
2021/07/06 08:16:58;;;;;;;0.15;0.15;;;;;;;21.87;67.81;100041.56;5030667;28;21343;-90
2021/07/06 08:19:27;;;;;;;0.15;0.15;;;;;;;21.68;72.24;100041.66;5028014;28;20057;-90
2021/07/06 08:22:57;;;;;;;0.10;0.10;;;;;;;21.83;73.94;100067.59;5027362;28;20056;-88
2021/07/06 08:25:36;;;;;;;0.20;0.20;;;;;;;22.08;73.31;100068.81;5026680;28;20052;-88
2021/07/06 08:28:07;;;;;;;0.10;0.10;;;;;;;22.27;70.48;100057.97;5026524;28;20079;-88
2021/07/06 08:30:35;;;;;;;0.10;0.10;;;;;;;22.33;70.13;100060.03;5044335;28;20059;-88
2021/07/06 08:33:10;;;;;;;0.10;0.10;;;;;;;22.56;70.10;100062.72;5047715;28;20044;-88
2021/07/06 08:35:51;;;;;;;0.10;0.10;;;;;;;22.53;70.70;100055.16;5027815;28;20493;-87
2021/07/06 08:38:21;;;;;;;0.10;0.10;;;;;;;22.68;69.64;100045.06;5048803;28;20055;-88
2021/07/06 08:40:57;;;;;;;0.20;0.20;;;;;;;22.77;70.08;100053.06;5028902;28;20049;-87
2021/07/06 08:43:31;;;;;;;0.10;0.10;;;;;;;22.87;67.75;100059.91;5030195;28;20509;-87
2021/07/06 08:46:05;;;;;;;0.10;0.10;;;;;;;22.74;66.37;100018.59;5030491;28;20570;-88
2021/07/06 08:48:38;;;;;;;0.10;0.10;;;;;;;23.09;65.32;100053.44;5049245;28;20044;-89
2021/07/06 08:51:07;;;;;;;0.10;0.10;;;;;;;22.99;67.20;100028.34;5049594;28;20397;-88
2021/07/06 08:53:40;;;;;;;0.10;0.10;;;;;;;23.24;64.50;100039.72;5052423;28;20044;-89
2021/07/06 08:56:15;;;;;;;0.10;0.10;;;;;;;23.38;66.12;100050.16;5049770;28;20045;-89
2021/07/06 08:58:50;;;;;;;0.10;0.10;;;;;;;23.40;67.94;100045.81;5029211;28;20087;-89
2021/07/06 09:01:28;;;;;;;0.10;0.10;;;;;;;23.46;66.73;100048.25;5047794;28;20056;-87
2021/07/06 09:04:03;;;;;;;0.10;0.10;;;;;;;23.40;64.31;100037.50;5050578;28;20055;-90
2021/07/06 09:06:54;;;;;;;0.13;0.13;;;;;;;23.24;66.25;100043.31;5056005;28;20099;-89
2021/07/06 09:09:30;;;;;;;0.10;0.10;;;;;;;23.32;67.45;100049.72;5034796;28;20057;-89
2021/07/06 09:12:00;;;;;;;0.10;0.10;;;;;;;23.67;68.07;100051.22;5031348;28;21404;-89
2021/07/06 09:14:39;;;;;;;0.10;0.10;;;;;;;24.02;64.16;100051.91;5032021;28;20060;-89
2021/07/06 09:17:12;;;;;;;1.00;0.40;;;;;;;23.97;63.55;100046.69;5036172;28;20481;-88
2021/07/06 09:19:49;;;;;;;0.52;0.30;;;;;;;24.32;63.32;100046.13;5033606;28;21957;-89
2021/07/06 09:22:35;;;;;;;0.38;0.15;;;;;;;24.43;62.96;100046.13;5031949;28;20642;-89
2021/07/06 09:25:11;;;;;;;0.10;0.10;;;;;;;24.52;64.27;100059.72;5033469;28;20052;-90
2021/07/06 09:27:41;;;;;;;0.20;0.20;;;;;;;24.78;62.46;100062.22;5052192;28;20057;-89
2021/07/06 09:30:18;;;;;;;0.20;0.10;;;;;;;24.72;60.87;100062.97;5035101;28;21360;-88
2021/07/06 09:32:53;;;;;;;0.10;0.10;;;;;;;24.65;60.19;100060.19;5033899;28;21388;-88
2021/07/06 09:35:29;;;;;;;0.10;0.10;;;;;;;24.59;62.46;100071.66;5052207;28;20416;-89
2021/07/06 09:38:14;;;;;;;0.10;0.10;;;;;;;24.30;64.50;100065.16;5034306;28;20067;-90
2021/07/06 09:41:18;;;;;;;0.10;0.10;;;;;;;24.13;65.86;100072.22;5032837;28;20420;-89
2021/07/06 09:43:53;;;;;;;0.15;0.15;;;;;;;24.03;64.90;100057.06;5034658;28;20071;-90
2021/07/06 09:46:24;;;;;;;0.20;0.20;;;;;;;23.43;64.66;100050.59;5054430;28;20064;-89
2021/07/06 09:48:59;;;;;;;;;;;;;;;23.37;64.52;100081.91;5054186;28;20869;-89
2021/07/06 09:51:40;;;;;;;0.10;0.10;;;;;;;23.40;63.66;100073.59;5037762;28;19925;-89
2021/07/06 09:54:26;;;;;;;0.10;0.10;;;;;;;23.30;65.02;100059.59;5054816;28;20040;-88
2021/07/06 09:57:21;;;;;;;0.10;0.10;;;;;;;23.43;63.47;100070.03;5054485;28;20048;-89
2021/07/06 10:00:03;;;;;;;0.10;0.10;;;;;;;23.30;66.86;100081.81;5036888;28;20060;-88
2021/07/06 10:02:46;;;;;;;0.20;0.17;;;;;;;23.11;65.34;100075.25;5054214;28;21264;-88
2021/07/06 10:05:24;;;;;;;0.13;0.10;;;;;;;23.13;65.55;100052.69;5032626;28;20064;-89
2021/07/06 10:08:02;;;;;;;0.20;0.20;;;;;;;23.02;65.40;100038.69;5032679;28;20059;-89
2021/07/06 10:10:35;;;;;;;0.10;0.10;;;;;;;23.25;67.18;100075.44;5032977;28;20060;-87
2021/07/06 10:13:05;;;;;;;0.10;0.10;;;;;;;23.56;65.34;100073.34;5037130;28;20060;-88
2021/07/06 10:15:35;;;;;;;0.55;0.30;;;;;;;23.93;64.91;100080.00;5031022;28;20056;-88
2021/07/06 10:18:04;;;;;;;0.20;0.20;;;;;;;24.10;65.04;100070.22;5030528;28;20064;-89
2021/07/06 10:20:39;;;;;;;0.20;0.20;;;;;;;24.31;61.38;100077.09;5028295;28;20056;-89
2021/07/06 10:23:14;;;;;;;0.20;0.10;;;;;;;24.12;65.08;100087.28;5028410;28;20056;-90
2021/07/06 10:25:54;;;;;;;0.10;0.10;;;;;;;24.05;62.93;100082.47;5027558;28;20059;-89
2021/07/06 10:28:30;;;;;;;0.10;0.10;;;;;;;23.89;63.85;100076.41;5042426;28;20040;-89
2021/07/06 10:31:24;;;;;;;0.10;0.10;;;;;;;23.74;62.82;100070.72;5025759;28;20112;-89
2021/07/06 10:34:01;;;;;;;0.17;0.17;;;;;;;23.76;65.25;100085.00;5030514;28;20060;-87
2021/07/06 10:36:41;;;;;;;0.10;0.10;;;;;;;23.81;62.25;100088.63;5025209;28;20509;-89
2021/07/06 10:39:16;;;;;;;0.10;0.10;;;;;;;23.87;65.31;100084.31;5047241;28;20049;-88
2021/07/06 10:42:09;;;;;;;0.50;0.20;;;;;;;23.93;64.32;100091.94;5044495;28;20040;-88
2021/07/06 10:44:42;;;;;;;0.10;0.10;;;;;;;23.71;64.67;100095.69;5033181;28;20053;-87
2021/07/06 10:47:39;;;;;;;0.10;0.10;;;;;;;23.47;65.28;100083.97;5030384;28;20099;-88
2021/07/06 10:51:16;;;;;;;0.10;0.10;;;;;;;23.55;66.26;100090.41;5028883;28;20798;-88
2021/07/06 10:54:04;;;;;;;0.10;0.10;;;;;;;23.27;66.97;100063.97;5031335;28;20060;-88
2021/07/06 10:56:34;;;;;;;0.15;0.15;;;;;;;23.41;66.29;100079.97;5030130;28;20059;-89
2021/07/06 10:59:18;;;;;;;0.10;0.10;;;;;;;23.35;66.02;100079.50;5031498;28;20441;-89
2021/07/06 11:02:00;;;;;;;0.10;0.10;;;;;;;23.20;65.75;100081.34;5030912;28;20056;-88
2021/07/06 11:05:10;;;;;;;0.10;0.10;;;;;;;23.42;65.76;100092.63;5036010;28;20056;-88
2021/07/06 11:07:53;;;;;;;0.10;0.10;;;;;;;23.38;64.77;100058.50;5050544;28;20059;-87
2021/07/06 11:10:39;;;;;;;0.10;0.10;;;;;;;23.57;59.73;100077.72;5034747;28;20359;-89
2021/07/06 11:13:19;;;;;;;0.10;0.10;;;;;;;23.41;64.71;100077.19;5053226;28;20037;-88
2021/07/06 11:15:52;;;;;;;0.10;0.10;;;;;;;23.50;66.29;100087.97;5050416;28;20051;-87
2021/07/06 11:18:47;;;;;;;0.15;0.15;;;;;;;23.57;64.83;100088.84;5035137;28;20489;-89
2021/07/06 11:21:37;;;;;;;0.10;0.10;;;;;;;23.51;63.89;100084.81;5028925;28;20041;-88
2021/07/06 11:24:20;;;;;;;0.10;0.10;;;;;;;23.32;66.18;100087.78;5031831;28;20055;-88
2021/07/06 11:26:56;;;;;;;0.10;0.10;;;;;;;23.06;66.77;100072.81;5050900;28;20420;-89
2021/07/06 11:29:36;;;;;;;0.22;0.20;;;;;;;23.16;66.65;100094.38;5029220;28;20448;-88
2021/07/06 11:32:14;;;;;;;0.20;0.20;;;;;;;23.14;64.92;100096.72;5027669;28;20869;-88
2021/07/06 11:34:47;;;;;;;0.10;0.10;;;;;;;23.04;66.46;100081.53;5029041;28;20904;-86
2021/07/06 11:37:47;;;;;;;0.10;0.10;;;;;;;23.10;65.26;100091.13;5028697;28;20068;-90
2021/07/06 11:40:17;;;;;;;0.10;0.10;;;;;;;22.87;63.29;100068.25;5047676;28;20060;-88
2021/07/06 11:42:55;;;;;;;0.10;0.10;;;;;;;22.81;63.14;100076.09;5031084;28;20852;-90
2021/07/06 11:45:24;;;;;;;0.10;0.10;;;;;;;22.82;64.23;100068.59;5029870;28;20041;-91
2021/07/06 11:48:05;;;;;;;0.30;0.10;;;;;;;22.90;66.95;100115.47;5033254;28;20417;-87
2021/07/06 11:50:40;;;;;;;0.10;0.10;;;;;;;22.60;67.72;100118.25;5028613;28;20053;-88
2021/07/06 11:53:15;;;;;;;0.15;0.15;;;;;;;22.37;68.05;100134.94;5042373;28;20059;-89
2021/07/06 11:55:48;;;;;;;0.20;0.20;;;;;;;22.23;70.48;100118.88;5027101;28;20053;-90
2021/07/06 11:58:25;;;;;;;0.10;0.10;;;;;;;22.23;68.93;100130.78;5028533;28;20052;-87
2021/07/06 12:00:59;;;;;;;0.20;0.20;;;;;;;21.96;74.03;100112.50;5029355;28;20049;-89
2021/07/06 12:03:29;;;;;;;0.20;0.20;;;;;;;22.03;73.80;100132.06;5030242;28;20056;-88
2021/07/06 12:05:58;;;;;;;0.38;0.10;;;;;;;21.84;74.38;100130.16;5026964;28;20056;-89
2021/07/06 12:08:34;;;;;;;0.20;0.20;;;;;;;21.84;77.22;100147.56;5039572;28;20055;-89
2021/07/06 12:11:06;;;;;;;0.20;0.20;;;;;;;21.88;75.79;100148.41;5048665;28;20057;-89
2021/07/06 12:13:48;;;;;;;0.10;0.10;;;;;;;22.07;75.50;100152.31;5045282;28;20044;-86
2021/07/06 12:16:23;;;;;;;0.20;0.20;;;;;;;22.05;74.02;100163.75;5046093;28;20044;-87
2021/07/06 12:18:59;;;;;;;0.13;0.13;;;;;;;21.97;73.86;100161.22;5042421;28;20378;-86
2021/07/06 12:21:30;;;;;;;0.10;0.10;;;;;;;21.87;75.32;100159.88;5024565;28;20068;-86
2021/07/06 12:24:06;;;;;;;0.10;0.10;;;;;;;21.56;75.51;100170.03;5027039;28;20053;-87
2021/07/06 12:26:40;;;;;;;0.10;0.10;;;;;;;21.45;74.21;100171.72;5051568;28;20047;-89
2021/07/06 12:29:27;;;;;;;0.20;0.20;;;;;;;21.25;74.62;100171.75;5030991;28;20049;-88
2021/07/06 12:32:02;;;;;;;0.13;0.13;;;;;;;21.21;75.68;100179.19;5026882;28;20071;-88
2021/07/06 12:34:37;;;;;;;0.10;0.10;;;;;;;21.21;75.82;100179.19;5043817;28;20041;-90
2021/07/06 12:37:13;;;;;;;0.10;0.10;;;;;;;21.00;76.13;100201.69;5026349;28;20067;-87
2021/07/06 12:39:43;;;;;;;0.15;0.15;;;;;;;20.93;75.91;100193.25;5043345;28;20053;-87
2021/07/06 12:42:19;;;;;;;0.10;0.10;;;;;;;20.81;78.01;100197.75;5026782;28;20889;-89